createdAt,value
2019-05-13T00:00:16.793Z,100916.13
2019-05-13T00:02:24.004Z,100928.52
2019-05-13T00:04:30.776Z,100932.73
2019-05-13T00:06:50.170Z,100937.58
2019-05-13T00:08:45.389Z,100937.25
2019-05-13T00:10:53.974Z,100941.27
2019-05-13T00:13:00.040Z,100935.15
2019-05-13T00:15:08.112Z,100929.82
2019-05-13T00:17:14.809Z,100924.98
2019-05-13T00:19:23.263Z,100935.09
2019-05-13T00:21:29.443Z,100931.47
2019-05-13T00:23:35.926Z,100937.67
2019-05-13T00:25:44.436Z,100940.27
2019-05-13T00:27:50.786Z,100939.32
2019-05-13T00:29:57.235Z,100932.69
2019-05-13T00:32:04.770Z,100937.06
2019-05-13T00:34:14.168Z,100934.05
2019-05-13T00:36:19.683Z,100930.52
2019-05-13T00:38:26.233Z,100926.95
2019-05-13T00:40:33.889Z,100927.37
2019-05-13T00:42:40.736Z,100935.75
2019-05-13T00:44:47.218Z,100938.38
2019-05-13T00:46:53.893Z,100939.80
2019-05-13T00:49:00.477Z,100942.05
2019-05-13T00:51:06.923Z,100935.37
2019-05-13T00:53:13.639Z,100933.16
2019-05-13T00:55:20.156Z,100929.58
2019-05-13T00:57:26.612Z,100940.55
2019-05-13T00:59:33.924Z,100928.69
2019-05-13T01:01:40.659Z,100930.52
2019-05-13T01:03:48.132Z,100937.16
2019-05-13T01:05:54.523Z,100935.80
2019-05-13T01:08:00.953Z,100933.58
2019-05-13T01:10:07.669Z,100933.48
2019-05-13T01:12:14.193Z,100923.79
2019-05-13T01:14:20.615Z,100931.32
2019-05-13T01:16:27.067Z,100918.56
2019-05-13T01:18:34.142Z,100930.38
2019-05-13T01:20:40.751Z,100933.80
2019-05-13T01:22:47.181Z,100940.86
2019-05-13T01:24:54.174Z,100939.98
2019-05-13T01:27:03.542Z,100936.97
2019-05-13T01:29:09.071Z,100940.92
2019-05-13T01:31:15.541Z,100937.61
2019-05-13T01:33:23.536Z,100935.60
2019-05-13T01:35:30.356Z,100936.59
2019-05-13T01:37:42.119Z,100933.11
2019-05-13T01:39:45.064Z,100934.05
2019-05-13T01:41:53.549Z,100922.71
2019-05-13T01:43:59.740Z,100923.98
2019-05-13T01:46:07.472Z,100931.47
2019-05-13T01:48:14.409Z,100928.36
2019-05-13T01:50:21.014Z,100932.73
2019-05-13T01:52:27.510Z,100936.31
2019-05-13T01:54:34.232Z,100931.37
2019-05-13T01:56:40.818Z,100932.27
2019-05-13T01:58:47.252Z,100935.33
2019-05-13T02:00:55.267Z,100932.16
2019-05-13T02:03:03.906Z,100931.79
2019-05-13T02:05:10.357Z,100927.74
2019-05-13T02:07:16.821Z,100926.36
2019-05-13T02:09:24.428Z,100931.91
2019-05-13T02:11:31.036Z,100939.02
2019-05-13T02:13:37.512Z,100938.64
2019-05-13T02:15:45.242Z,100936.43
2019-05-13T02:17:53.701Z,100936.43
2019-05-13T02:19:59.888Z,100937.77
2019-05-13T02:22:06.438Z,100940.07
2019-05-13T02:24:14.419Z,100942.33
2019-05-13T02:26:21.171Z,100952.55
2019-05-13T02:28:27.549Z,100949.39
2019-05-13T02:30:34.905Z,100945.44
2019-05-13T02:32:42.831Z,100948.50
2019-05-13T02:34:49.541Z,100951.09
2019-05-13T02:36:56.013Z,100957.52
2019-05-13T02:39:02.895Z,100950.92
2019-05-13T02:41:09.591Z,100960.21
2019-05-13T02:43:16.134Z,100959.73
2019-05-13T02:45:22.879Z,100960.69
2019-05-13T02:47:29.330Z,100968.69
2019-05-13T02:49:35.836Z,100971.89
2019-05-13T02:51:43.124Z,100970.27
2019-05-13T02:53:52.330Z,100973.32
2019-05-13T02:55:59.072Z,100978.11
2019-05-13T02:58:05.658Z,100974.53
2019-05-13T03:00:13.551Z,100979.33
2019-05-13T03:02:22.366Z,100979.75
2019-05-13T03:04:28.318Z,100982.61
2019-05-13T03:06:34.743Z,100979.70
2019-05-13T03:08:49.360Z,100981.39
2019-05-13T03:10:52.711Z,100991.03
2019-05-13T03:12:57.724Z,100992.36
2019-05-13T03:15:05.692Z,100986.66
2019-05-13T03:17:13.841Z,100997.30
2019-05-13T03:19:22.450Z,100989.34
2019-05-13T03:21:28.576Z,100982.14
2019-05-13T03:23:35.130Z,100991.30
2019-05-13T03:25:42.948Z,100983.61
2019-05-13T03:27:49.641Z,100981.45
2019-05-13T03:29:56.882Z,100988.84
2019-05-13T03:32:06.694Z,100991.35
2019-05-13T03:34:15.476Z,100995.80
2019-05-13T03:36:25.277Z,101000.00
2019-05-13T03:38:28.006Z,101005.22
2019-05-13T03:40:34.938Z,101012.61
2019-05-13T03:42:45.506Z,101009.08
2019-05-13T03:44:56.823Z,101011.95
2019-05-13T03:47:04.681Z,101008.13
2019-05-13T03:49:14.199Z,101016.81
2019-05-13T03:51:22.249Z,101016.66
2019-05-13T03:53:28.912Z,101019.70
2019-05-13T03:55:35.977Z,101020.55
2019-05-13T03:57:42.782Z,101027.24
2019-05-13T03:59:52.420Z,101030.61
2019-05-13T04:01:57.762Z,101022.53
2019-05-13T04:04:05.344Z,101023.45
2019-05-13T04:06:13.582Z,101030.80
2019-05-13T04:08:22.711Z,101026.80
2019-05-13T04:10:29.165Z,101025.11
2019-05-13T04:12:38.701Z,101019.91
2019-05-13T04:14:45.536Z,101017.77
2019-05-13T04:16:53.191Z,101019.23
2019-05-13T04:19:02.573Z,101027.66
2019-05-13T04:21:08.532Z,101026.87
2019-05-13T04:23:15.165Z,101033.87
2019-05-13T04:25:23.220Z,101024.45
2019-05-13T04:27:32.702Z,101023.30
2019-05-13T04:29:42.936Z,101022.34
2019-05-13T04:31:49.106Z,101033.72
2019-05-13T04:33:57.968Z,101037.14
2019-05-13T04:36:04.663Z,101039.36
2019-05-13T04:38:13.190Z,101034.03
2019-05-13T04:40:22.645Z,101030.45
2019-05-13T04:42:27.770Z,101037.52
2019-05-13T04:44:34.388Z,101037.25
2019-05-13T04:46:43.451Z,101033.72
2019-05-13T04:48:49.107Z,101034.88
2019-05-13T04:50:56.511Z,101037.86
2019-05-13T04:53:03.506Z,101034.86
2019-05-13T04:55:13.150Z,101042.36
2019-05-13T04:57:18.983Z,101042.47
2019-05-13T04:59:25.516Z,101046.52
2019-05-13T05:02:04.918Z,101054.11
2019-05-13T05:04:31.049Z,101058.97
2019-05-13T05:07:18.213Z,101057.64
2019-05-13T05:10:12.998Z,101062.92
2019-05-13T05:12:42.343Z,101057.77
2019-05-13T05:15:18.007Z,101060.34
2019-05-13T05:17:43.040Z,101069.62
2019-05-13T05:20:25.094Z,101081.06
2019-05-13T05:23:03.196Z,101080.97
2019-05-13T05:25:45.850Z,101084.22
2019-05-13T05:28:14.773Z,101092.27
2019-05-13T05:30:25.980Z,101093.67
2019-05-13T05:32:48.772Z,101088.41
2019-05-13T05:35:32.355Z,101094.94
2019-05-13T05:37:49.362Z,101097.63
2019-05-13T05:39:58.886Z,101096.68
2019-05-13T05:42:07.790Z,101093.33
2019-05-13T05:44:16.382Z,101099.02
2019-05-13T05:46:25.139Z,101095.65
2019-05-13T05:48:35.311Z,101104.41
2019-05-13T05:50:44.659Z,101106.83
2019-05-13T05:52:54.558Z,101108.00
2019-05-13T05:55:02.559Z,101103.77
2019-05-13T05:57:12.118Z,101105.92
2019-05-13T05:59:21.934Z,101112.03
2019-05-13T06:01:32.555Z,101107.78
2019-05-13T06:03:41.712Z,101107.72
2019-05-13T06:05:51.220Z,101111.98
2019-05-13T06:07:57.909Z,101114.20
2019-05-13T06:10:06.131Z,101112.64
2019-05-13T06:12:13.725Z,101105.83
2019-05-13T06:14:21.912Z,101107.52
2019-05-13T06:16:28.687Z,101107.31
2019-05-13T06:18:35.234Z,101099.97
2019-05-13T06:20:41.986Z,101108.72
2019-05-13T06:22:48.556Z,101108.85
2019-05-13T06:24:55.071Z,101117.28
2019-05-13T06:27:02.200Z,101121.26
2019-05-13T06:29:11.649Z,101118.05
2019-05-13T06:31:18.420Z,101120.42
2019-05-13T06:33:24.871Z,101119.33
2019-05-13T06:35:32.346Z,101118.59
2019-05-13T06:37:41.294Z,101123.81
2019-05-13T06:39:47.996Z,101121.22
2019-05-13T06:41:54.484Z,101122.48
2019-05-13T06:44:02.108Z,101117.27
2019-05-13T06:46:09.193Z,101115.06
2019-05-13T06:48:15.583Z,101113.53
2019-05-13T06:50:22.068Z,101105.41
2019-05-13T06:52:28.497Z,101110.48
2019-05-13T06:54:34.948Z,101113.55
2019-05-13T06:56:42.805Z,101113.70
2019-05-13T06:58:51.828Z,101123.82
2019-05-13T07:00:58.713Z,101126.67
2019-05-13T07:03:05.810Z,101120.86
2019-05-13T07:05:12.363Z,101126.16
2019-05-13T07:07:18.839Z,101123.25
2019-05-13T07:09:25.343Z,101120.81
2019-05-13T07:11:31.787Z,101117.87
2019-05-13T07:13:38.191Z,101119.86
2019-05-13T07:15:44.865Z,101129.50
2019-05-13T07:17:52.064Z,101132.61
2019-05-13T07:19:58.533Z,101143.12
2019-05-13T07:22:05.191Z,101144.81
2019-05-13T07:24:12.740Z,101156.89
2019-05-13T07:26:21.952Z,101160.06
2019-05-13T07:28:27.759Z,101155.98
2019-05-13T07:30:43.459Z,101159.69
2019-05-13T07:32:52.428Z,101155.08
2019-05-13T07:34:59.141Z,101151.92
2019-05-13T07:37:05.733Z,101150.98
2019-05-13T07:39:12.402Z,101153.55
2019-05-13T07:41:33.147Z,101157.61
2019-05-13T07:43:27.017Z,101163.92
2019-05-13T07:45:34.188Z,101156.52
2019-05-13T07:47:41.699Z,101159.13
2019-05-13T07:49:48.489Z,101158.55
2019-05-13T07:51:55.120Z,101151.77
2019-05-13T07:54:02.377Z,101150.08
2019-05-13T07:56:09.098Z,101159.27
2019-05-13T07:58:15.556Z,101161.20
2019-05-13T08:00:22.709Z,101158.83
2019-05-13T08:02:31.777Z,101162.84
2019-05-13T08:04:37.366Z,101159.98
2019-05-13T08:06:43.983Z,101169.67
2019-05-13T08:08:52.295Z,101168.35
2019-05-13T08:11:01.087Z,101171.78
2019-05-13T08:13:06.944Z,101176.33
2019-05-13T08:15:14.392Z,101180.13
2019-05-13T08:17:22.487Z,101184.16
2019-05-13T08:19:29.146Z,101190.25
2019-05-13T08:21:36.679Z,101186.19
2019-05-13T08:23:43.087Z,101193.52
2019-05-13T08:25:51.446Z,101186.95
2019-05-13T08:27:57.685Z,101180.70
2019-05-13T08:30:08.761Z,101185.30
2019-05-13T08:32:15.155Z,101188.11
2019-05-13T08:34:22.547Z,101196.70
2019-05-13T08:36:29.202Z,101198.67
2019-05-13T08:38:35.590Z,101196.30
2019-05-13T08:40:42.594Z,101196.52
2019-05-13T08:42:49.168Z,101197.89
2019-05-13T08:44:55.627Z,101199.73
2019-05-13T08:47:03.328Z,101195.39
2019-05-13T08:49:11.874Z,101192.24
2019-05-13T08:51:18.099Z,101197.11
2019-05-13T08:53:25.822Z,101203.28
2019-05-13T08:55:32.369Z,101199.33
2019-05-13T08:57:38.764Z,101200.36
2019-05-13T08:59:45.331Z,101207.72
2019-05-13T09:01:52.129Z,101212.56
2019-05-13T09:04:01.847Z,101213.55
2019-05-13T09:06:06.950Z,101202.27
2019-05-13T09:08:16.681Z,101201.34
2019-05-13T09:10:23.299Z,101202.38
2019-05-13T09:12:35.715Z,101199.98
2019-05-13T09:14:38.297Z,101213.72
2019-05-13T09:16:44.988Z,101212.94
2019-05-13T09:18:52.192Z,101209.07
2019-05-13T09:20:58.890Z,101210.38
2019-05-13T09:23:06.178Z,101214.09
2019-05-13T09:25:12.793Z,101208.81
2019-05-13T09:27:19.413Z,101207.33
2019-05-13T09:29:25.906Z,101212.16
2019-05-13T09:31:32.588Z,101210.88
2019-05-13T09:33:41.653Z,101216.98
2019-05-13T09:35:50.197Z,101216.13
2019-05-13T09:37:55.436Z,101220.59
2019-05-13T09:40:02.508Z,101215.23
2019-05-13T09:42:09.203Z,101215.10
2019-05-13T09:44:15.743Z,101223.27
2019-05-13T09:46:22.706Z,101225.10
2019-05-13T09:48:31.736Z,101226.30
2019-05-13T09:50:37.554Z,101226.44
2019-05-13T09:52:44.139Z,101226.83
2019-05-13T09:54:52.402Z,101225.55
2019-05-13T09:56:58.655Z,101219.63
2019-05-13T09:59:05.265Z,101221.92
2019-05-13T10:01:12.621Z,101227.11
2019-05-13T10:03:24.343Z,101223.91
2019-05-13T10:05:27.664Z,101227.34
2019-05-13T10:07:34.185Z,101237.34
2019-05-13T10:09:42.903Z,101234.26
2019-05-13T10:11:51.755Z,101240.56
2019-05-13T10:13:57.094Z,101232.12
2019-05-13T10:16:03.735Z,101238.59
2019-05-13T10:18:12.519Z,101240.45
2019-05-13T10:20:23.059Z,101236.87
2019-05-13T10:22:31.781Z,101238.98
2019-05-13T10:24:38.149Z,101240.69
2019-05-13T10:26:45.055Z,101239.20
2019-05-13T10:28:51.962Z,101251.07
2019-05-13T10:30:58.674Z,101242.78
2019-05-13T10:33:06.368Z,101244.73
2019-05-13T10:35:14.774Z,101254.39
2019-05-13T10:37:22.155Z,101254.13
2019-05-13T10:39:29.155Z,101248.70
2019-05-13T10:41:35.701Z,101254.24
2019-05-13T10:43:44.249Z,101250.56
2019-05-13T10:45:52.215Z,101248.48
2019-05-13T10:47:58.677Z,101248.44
2019-05-13T10:50:07.488Z,101244.89
2019-05-13T10:52:14.250Z,101250.02
2019-05-13T10:54:21.695Z,101257.14
2019-05-13T10:56:28.443Z,101250.30
2019-05-13T10:58:34.911Z,101251.53
2019-05-13T11:00:54.301Z,101251.81
2019-05-13T11:03:00.804Z,101245.91
2019-05-13T11:05:07.612Z,101241.75
2019-05-13T11:07:14.245Z,101246.02
2019-05-13T11:09:21.904Z,101244.08
2019-05-13T11:11:28.876Z,101241.79
2019-05-13T11:13:54.077Z,101242.11
2019-05-13T11:15:45.326Z,101237.65
2019-05-13T11:17:52.028Z,101244.30
2019-05-13T11:19:58.430Z,101236.95
2019-05-13T11:22:05.357Z,101244.30
2019-05-13T11:24:12.652Z,101232.30
2019-05-13T11:26:21.476Z,101235.02
2019-05-13T11:28:27.514Z,101228.12
2019-05-13T11:30:34.402Z,101230.22
2019-05-13T11:32:42.721Z,101226.93
2019-05-13T11:34:52.718Z,101232.80
2019-05-13T11:36:58.148Z,101236.44
2019-05-13T11:39:07.934Z,101233.59
2019-05-13T11:41:14.580Z,101230.68
2019-05-13T11:43:22.220Z,101234.69
2019-05-13T11:45:31.555Z,101234.30
2019-05-13T11:47:37.752Z,101240.67
2019-05-13T11:49:44.180Z,101244.30
2019-05-13T11:51:51.921Z,101240.03
2019-05-13T11:53:58.556Z,101243.25
2019-05-13T11:56:05.214Z,101240.80
2019-05-13T11:58:13.907Z,101236.53
2019-05-13T12:00:53.518Z,101241.03
2019-05-13T12:03:03.596Z,101240.64
2019-05-13T12:05:10.958Z,101251.80
2019-05-13T12:07:16.651Z,101251.13
2019-05-13T12:09:23.070Z,101252.24
2019-05-13T12:11:33.063Z,101248.27
2019-05-13T12:13:37.724Z,101243.61
2019-05-13T12:15:49.424Z,101245.17
2019-05-13T12:17:53.012Z,101238.28
2019-05-13T12:20:02.290Z,101243.75
2019-05-13T12:22:07.746Z,101245.61
2019-05-13T12:24:14.282Z,101253.50
2019-05-13T12:26:23.439Z,101254.03
2019-05-13T12:28:28.888Z,101256.07
2019-05-13T12:30:35.348Z,101250.24
2019-05-13T12:32:43.729Z,101248.48
2019-05-13T12:34:52.575Z,101246.73
2019-05-13T12:36:58.596Z,101253.27
2019-05-13T12:39:07.702Z,101258.13
2019-05-13T12:41:14.243Z,101259.43
2019-05-13T12:43:24.085Z,101246.27
2019-05-13T12:45:29.133Z,101247.27
2019-05-13T12:47:35.662Z,101245.41
2019-05-13T12:49:43.761Z,101243.19
2019-05-13T12:51:51.660Z,101251.84
2019-05-13T12:53:58.432Z,101246.00
2019-05-13T12:56:04.948Z,101235.30
2019-05-13T12:58:12.279Z,101235.73
2019-05-13T13:00:23.346Z,101238.65
2019-05-13T13:02:27.690Z,101238.75
2019-05-13T13:04:34.170Z,101229.80
2019-05-13T13:06:45.042Z,101222.02
2019-05-13T13:08:50.571Z,101215.42
2019-05-13T13:10:57.149Z,101215.26
2019-05-13T13:13:03.665Z,101215.03
2019-05-13T13:15:35.952Z,101213.47
2019-05-13T13:17:24.119Z,101210.16
2019-05-13T13:19:29.334Z,101218.05
2019-05-13T13:21:37.699Z,101222.09
2019-05-13T13:23:43.887Z,101214.43
2019-05-13T13:25:54.139Z,101216.84
2019-05-13T13:28:09.859Z,101214.20
2019-05-13T13:30:08.881Z,101217.34
2019-05-13T13:32:15.446Z,101217.80
2019-05-13T13:34:26.035Z,101214.06
2019-05-13T13:36:33.437Z,101220.92
2019-05-13T13:38:38.370Z,101213.53
2019-05-13T13:40:45.977Z,101202.53
2019-05-13T13:42:53.183Z,101211.17
2019-05-13T13:45:04.711Z,101201.73
2019-05-13T13:47:07.989Z,101210.64
2019-05-13T13:49:14.605Z,101197.60
2019-05-13T13:51:26.608Z,101203.10
2019-05-13T13:53:29.134Z,101201.64
2019-05-13T13:55:35.727Z,101195.91
2019-05-13T13:57:44.643Z,101193.42
2019-05-13T14:00:16.181Z,101192.80
2019-05-13T14:01:58.568Z,101190.89
2019-05-13T14:04:05.109Z,101194.58
2019-05-13T14:06:12.889Z,101194.73
2019-05-13T14:08:21.661Z,101190.84
2019-05-13T14:10:27.649Z,101197.59
2019-05-13T14:12:34.118Z,101196.48
2019-05-13T14:14:41.472Z,101197.58
2019-05-13T14:16:48.132Z,101192.45
2019-05-13T14:18:54.563Z,101194.21
2019-05-13T14:21:03.347Z,101195.84
2019-05-13T14:23:09.366Z,101195.38
2019-05-13T14:25:16.220Z,101206.34
2019-05-13T14:27:23.013Z,101204.83
2019-05-13T14:29:40.701Z,101205.31
2019-05-13T14:31:41.209Z,101206.85
2019-05-13T14:33:46.960Z,101205.06
2019-05-13T14:35:53.796Z,101204.13
2019-05-13T14:38:02.332Z,101204.67
2019-05-13T14:40:12.185Z,101205.09
2019-05-13T14:42:18.258Z,101201.91
2019-05-13T14:44:24.660Z,101199.23
2019-05-13T14:46:46.662Z,101203.73
2019-05-13T14:48:40.857Z,101212.80
2019-05-13T14:50:47.701Z,101217.94
2019-05-13T14:52:54.040Z,101219.70
2019-05-13T14:55:02.192Z,101217.44
2019-05-13T14:57:11.883Z,101218.88
2019-05-13T14:59:16.890Z,101214.44
2019-05-13T15:01:24.365Z,101216.58
2019-05-13T15:03:32.663Z,101216.47
2019-05-13T15:05:38.925Z,101216.36
2019-05-13T15:07:45.346Z,101213.91
2019-05-13T15:09:51.828Z,101214.09
2019-05-13T15:11:58.219Z,101206.00
2019-05-13T15:14:04.782Z,101203.42
2019-05-13T15:16:11.244Z,101212.61
2019-05-13T15:18:18.084Z,101213.63
2019-05-13T15:20:24.662Z,101215.96
2019-05-13T15:22:31.963Z,101215.57
2019-05-13T15:24:41.126Z,101215.14
2019-05-13T15:26:51.549Z,101213.70
2019-05-13T15:28:57.785Z,101217.24
2019-05-13T15:31:04.660Z,101214.05
2019-05-13T15:33:11.241Z,101218.02
2019-05-13T15:35:17.838Z,101216.06
2019-05-13T15:37:24.300Z,101218.20
2019-05-13T15:39:31.604Z,101217.51
2019-05-13T15:41:38.444Z,101215.67
2019-05-13T15:43:44.985Z,101217.84
2019-05-13T15:45:51.552Z,101211.70
2019-05-13T15:47:58.053Z,101211.95
2019-05-13T15:50:05.892Z,101212.77
2019-05-13T15:52:12.353Z,101216.31
2019-05-13T15:54:18.815Z,101216.09
2019-05-13T15:56:25.217Z,101212.56
2019-05-13T15:58:38.951Z,101220.20
2019-05-13T16:00:41.930Z,101212.39
2019-05-13T16:02:47.829Z,101224.39
2019-05-13T16:05:05.670Z,101224.72
2019-05-13T16:07:02.577Z,101221.09
2019-05-13T16:09:11.508Z,101220.71
2019-05-13T16:11:17.467Z,101220.45
2019-05-13T16:13:24.309Z,101228.67
2019-05-13T16:15:32.157Z,101233.49
2019-05-13T16:17:44.105Z,101233.96
2019-05-13T16:19:46.912Z,101242.89
2019-05-13T16:21:53.435Z,101238.38
2019-05-13T16:24:02.356Z,101232.75
2019-05-13T16:26:08.121Z,101229.03
2019-05-13T16:28:14.665Z,101233.52
2019-05-13T16:30:22.245Z,101236.81
2019-05-13T16:32:28.748Z,101241.59
2019-05-13T16:34:35.469Z,101245.51
2019-05-13T16:36:42.969Z,101241.45
2019-05-13T16:38:49.784Z,101252.39
2019-05-13T16:40:56.487Z,101245.64
2019-05-13T16:43:02.875Z,101248.84
2019-05-13T16:45:12.549Z,101249.45
2019-05-13T16:47:21.288Z,101253.69
2019-05-13T16:49:27.927Z,101252.69
2019-05-13T16:51:34.562Z,101258.71
2019-05-13T16:53:42.129Z,101257.30
2019-05-13T16:55:50.873Z,101251.06
2019-05-13T16:57:56.960Z,101254.77
2019-05-13T17:00:04.359Z,101251.13
2019-05-13T17:02:12.677Z,101256.78
2019-05-13T17:04:21.342Z,101255.41
2019-05-13T17:06:27.462Z,101258.84
2019-05-13T17:08:33.949Z,101261.44
2019-05-13T17:10:42.016Z,101256.26
2019-05-13T17:12:48.495Z,101260.11
2019-05-13T17:14:54.898Z,101257.11
2019-05-13T17:17:01.419Z,101266.22
2019-05-13T17:19:08.968Z,101262.53
2019-05-13T17:21:15.491Z,101264.32
2019-05-13T17:23:21.963Z,101257.57
2019-05-13T17:25:28.506Z,101262.80
2019-05-13T17:27:35.015Z,101259.72
2019-05-13T17:29:41.475Z,101259.19
2019-05-13T17:31:47.994Z,101255.50
2019-05-13T17:33:54.561Z,101261.72
2019-05-13T17:36:01.853Z,101254.76
2019-05-13T17:38:08.690Z,101249.95
2019-05-13T17:40:15.424Z,101249.85
2019-05-13T17:42:25.092Z,101249.38
2019-05-13T17:44:32.071Z,101251.28
2019-05-13T17:46:38.567Z,101251.22
2019-05-13T17:48:45.025Z,101252.48
2019-05-13T17:50:52.101Z,101261.25
2019-05-13T17:53:02.132Z,101252.97
2019-05-13T17:55:08.857Z,101254.70
2019-05-13T17:57:15.455Z,101254.92
2019-05-13T17:59:21.992Z,101253.53
2019-05-13T18:01:28.451Z,101251.73
2019-05-13T18:03:34.934Z,101255.69
2019-05-13T18:05:42.172Z,101253.53
2019-05-13T18:07:48.674Z,101250.48
2019-05-13T18:09:55.063Z,101250.47
2019-05-13T18:12:02.417Z,101252.69
2019-05-13T18:14:11.245Z,101253.13
2019-05-13T18:16:17.327Z,101255.22
2019-05-13T18:18:38.637Z,101252.47
2019-05-13T18:20:32.244Z,101254.69
2019-05-13T18:22:41.903Z,101257.44
2019-05-13T18:24:47.787Z,101260.13
2019-05-13T18:26:55.718Z,101257.48
2019-05-13T18:29:02.247Z,101259.54
2019-05-13T18:31:08.834Z,101261.65
2019-05-13T18:33:15.438Z,101264.13
2019-05-13T18:35:22.142Z,101266.58
2019-05-13T18:37:28.713Z,101264.73
2019-05-13T18:39:35.262Z,101272.11
2019-05-13T18:41:41.738Z,101283.98
2019-05-13T18:43:48.263Z,101275.52
2019-05-13T18:45:54.780Z,101278.15
2019-05-13T18:48:01.782Z,101282.73
2019-05-13T18:50:11.586Z,101282.25
2019-05-13T18:52:18.318Z,101280.74
2019-05-13T18:54:24.815Z,101277.94
2019-05-13T18:56:32.279Z,101278.78
2019-05-13T18:58:39.190Z,101277.99
2019-05-13T19:00:45.789Z,101279.31
2019-05-13T19:02:52.260Z,101274.83
2019-05-13T19:04:58.763Z,101276.62
2019-05-13T19:07:07.742Z,101276.56
2019-05-13T19:09:13.604Z,101280.40
2019-05-13T19:11:22.227Z,101279.45
2019-05-13T19:13:28.990Z,101281.24
2019-05-13T19:15:35.710Z,101284.41
2019-05-13T19:17:43.359Z,101285.67
2019-05-13T19:19:51.506Z,101286.48
2019-05-13T19:21:58.715Z,101283.40
2019-05-13T19:24:05.340Z,101276.87
2019-05-13T19:26:13.719Z,101283.52
2019-05-13T19:28:26.581Z,101283.63
2019-05-13T19:30:33.038Z,101283.20
2019-05-13T19:32:41.640Z,101277.46
2019-05-13T19:34:47.840Z,101279.20
2019-05-13T19:36:54.364Z,101278.72
2019-05-13T19:39:01.793Z,101271.18
2019-05-13T19:41:11.673Z,101272.08
2019-05-13T19:43:18.053Z,101274.17
2019-05-13T19:45:24.540Z,101270.56
2019-05-13T19:47:31.149Z,101263.55
2019-05-13T19:49:37.756Z,101271.14
2019-05-13T19:51:45.627Z,101264.55
2019-05-13T19:53:52.168Z,101266.70
2019-05-13T19:55:58.568Z,101267.72
2019-05-13T19:58:05.196Z,101264.34
2019-05-13T20:00:14.201Z,101263.92
2019-05-13T20:02:22.305Z,101264.70
2019-05-13T20:04:31.146Z,101266.91
2019-05-13T20:06:38.418Z,101262.45
2019-05-13T20:08:45.925Z,101269.45
2019-05-13T20:10:52.452Z,101272.52
2019-05-13T20:12:59.052Z,101262.34
2019-05-13T20:15:08.040Z,101266.77
2019-05-13T20:17:14.570Z,101264.44
2019-05-13T20:19:22.373Z,101264.02
2019-05-13T20:21:31.738Z,101256.17
2019-05-13T20:23:37.331Z,101259.82
2019-05-13T20:25:43.898Z,101250.27
2019-05-13T20:27:51.548Z,101250.38
2019-05-13T20:29:58.250Z,101238.95
2019-05-13T20:32:04.855Z,101231.94
2019-05-13T20:34:12.012Z,101221.48
2019-05-13T20:36:23.172Z,101226.30
2019-05-13T20:38:31.724Z,101228.94
2019-05-13T20:40:41.318Z,101223.67
2019-05-13T20:42:47.298Z,101222.02
2019-05-13T20:44:53.881Z,101221.65
2019-05-13T20:47:01.582Z,101223.02
2019-05-13T20:49:12.060Z,101216.86
2019-05-13T20:51:18.224Z,101221.28
2019-05-13T20:53:24.842Z,101220.33
2019-05-13T20:55:32.098Z,101223.33
2019-05-13T20:57:38.832Z,101219.74
2019-05-13T20:59:45.386Z,101220.98
2019-05-13T21:01:53.091Z,101219.61
2019-05-13T21:04:01.657Z,101219.97
2019-05-13T21:06:07.744Z,101219.50
2019-05-13T21:08:14.153Z,101221.14
2019-05-13T21:10:21.272Z,101219.71
2019-05-13T21:12:27.850Z,101228.45
2019-05-13T21:14:34.784Z,101235.94
2019-05-13T21:16:41.798Z,101234.14
2019-05-13T21:18:48.340Z,101226.64
2019-05-13T21:20:54.874Z,101227.05
2019-05-13T21:23:02.296Z,101224.84
2019-05-13T21:25:09.299Z,101221.62
2019-05-13T21:27:17.231Z,101216.59
2019-05-13T21:29:23.688Z,101219.98
2019-05-13T21:31:30.200Z,101213.29
2019-05-13T21:33:36.668Z,101217.06
2019-05-13T21:35:43.122Z,101218.23
2019-05-13T21:37:51.176Z,101222.91
2019-05-13T21:39:57.841Z,101217.70
2019-05-13T21:42:04.457Z,101221.23
2019-05-13T21:44:11.970Z,101225.66
2019-05-13T21:46:18.647Z,101220.39
2019-05-13T21:48:25.039Z,101219.08
2019-05-13T21:50:37.023Z,101212.91
2019-05-13T21:52:41.788Z,101215.91
2019-05-13T21:54:51.496Z,101215.07
2019-05-13T21:56:57.602Z,101220.34
2019-05-13T21:59:05.648Z,101212.73
2019-05-13T22:01:12.259Z,101212.80
2019-05-13T22:03:18.914Z,101209.20
2019-05-13T22:05:25.537Z,101205.68
2019-05-13T22:07:32.072Z,101199.82
2019-05-13T22:09:38.573Z,101206.40
2019-05-13T22:11:45.040Z,101196.27
2019-05-13T22:13:51.601Z,101193.99
2019-05-13T22:15:58.033Z,101199.25
2019-05-13T22:18:04.769Z,101199.25
2019-05-13T22:20:12.220Z,101195.19
2019-05-13T22:22:18.904Z,101192.86
2019-05-13T22:24:25.472Z,101200.22
2019-05-13T22:26:31.956Z,101193.64
2019-05-13T22:28:38.425Z,101191.96
2019-05-13T22:30:45.002Z,101187.05
2019-05-13T22:32:52.347Z,101191.00
2019-05-13T22:35:01.891Z,101178.23
2019-05-13T22:37:08.362Z,101177.76
2019-05-13T22:39:14.896Z,101181.11
2019-05-13T22:41:22.218Z,101183.98
2019-05-13T22:43:28.972Z,101175.52
2019-05-13T22:45:35.526Z,101175.11
2019-05-13T22:47:42.291Z,101176.72
2019-05-13T22:49:48.751Z,101172.35
2019-05-13T22:51:55.266Z,101167.57
2019-05-13T22:54:01.870Z,101172.41
2019-05-13T22:56:08.538Z,101170.56
2019-05-13T22:58:15.091Z,101157.83
2019-05-13T23:00:22.349Z,101166.55
2019-05-13T23:02:29.168Z,101160.69
2019-05-13T23:04:35.870Z,101160.61
2019-05-13T23:06:42.369Z,101161.02
2019-05-13T23:08:48.898Z,101155.77
2019-05-13T23:10:55.294Z,101156.59
2019-05-13T23:13:02.259Z,101158.33
2019-05-13T23:15:11.773Z,101153.84
2019-05-13T23:17:17.735Z,101154.39
2019-05-13T23:19:24.213Z,101148.94
2019-05-13T23:21:31.292Z,101145.77
2019-05-13T23:23:39.267Z,101143.98
2019-05-13T23:25:45.840Z,101145.30
2019-05-13T23:27:52.339Z,101140.88
2019-05-13T23:30:00.995Z,101144.40
2019-05-13T23:32:07.205Z,101139.68
2019-05-13T23:34:13.627Z,101142.67
2019-05-13T23:36:21.092Z,101138.66
2019-05-13T23:38:27.715Z,101138.63
2019-05-13T23:40:34.213Z,101138.98
2019-05-13T23:42:40.785Z,101141.08
2019-05-13T23:44:47.321Z,101142.81
2019-05-13T23:46:53.968Z,101136.05
2019-05-13T23:49:01.249Z,101135.09
2019-05-13T23:51:08.896Z,101134.20
2019-05-13T23:53:15.341Z,101134.33
2019-05-13T23:55:22.601Z,101133.55
2019-05-13T23:57:31.370Z,101128.35
2019-05-13T23:59:39.096Z,101127.39
